Time;durP1;ratioP1;P1;durP2;ratioP2;P2;SDS_P1;SDS_P2;PMS_P1;PMS_P2;Temp;Humidity;BMP_temperature;BMP_pressure;BME280_temperature;BME280_humidity;BME280_pressure;Samples;Min_cycle;Max_cycle;Signal;HPM_P1;HPM_P2
2023/04/06 00:00:43;;;;;;;10.90;6.90;;;0.80;98.70;;;;;;5019723;28;20619;-70
2023/04/06 00:03:09;;;;;;;7.90;5.68;;;0.80;98.40;;;;;;5002023;28;20140;-70
2023/04/06 00:05:34;;;;;;;11.45;6.22;;;0.80;98.50;;;;;;5001843;28;20125;-70
2023/04/06 00:08:00;;;;;;;9.10;6.13;;;0.80;98.70;;;;;;5002315;28;20461;-71
2023/04/06 00:10:26;;;;;;;10.63;6.13;;;0.80;99.20;;;;;;5005718;28;20046;-71
2023/04/06 00:12:52;;;;;;;10.43;5.60;;;0.80;99.60;;;;;;4996910;28;20041;-70
2023/04/06 00:15:18;;;;;;;8.18;6.30;;;0.70;99.30;;;;;;5001486;28;20084;-70
2023/04/06 00:17:43;;;;;;;10.80;6.38;;;0.70;99.70;;;;;;4997995;28;20048;-71
2023/04/06 00:20:10;;;;;;;7.63;5.93;;;0.60;99.50;;;;;;5005710;28;20477;-70
2023/04/06 00:22:35;;;;;;;11.20;6.25;;;0.60;99.90;;;;;;5010266;28;20120;-71
2023/04/06 00:25:01;;;;;;;7.78;6.03;;;0.60;99.80;;;;;;4997900;28;20478;-71
2023/04/06 00:27:26;;;;;;;9.50;5.43;;;0.60;99.90;;;;;;5001644;28;20069;-71
2023/04/06 00:29:52;;;;;;;8.27;5.90;;;0.50;99.90;;;;;;5027499;28;20083;-71
2023/04/06 00:32:18;;;;;;;8.57;6.05;;;0.50;99.90;;;;;;5010956;28;20154;-71
2023/04/06 00:34:43;;;;;;;8.10;5.72;;;0.40;99.90;;;;;;5006206;28;20045;-70
2023/04/06 00:37:10;;;;;;;9.68;5.97;;;0.40;99.90;;;;;;5010838;28;20080;-70
2023/04/06 00:39:35;;;;;;;9.57;6.18;;;0.50;99.90;;;;;;5007628;28;20037;-71
2023/04/06 00:42:09;;;;;;;11.48;6.25;;;0.40;99.90;;;;;;4992129;28;20091;-70
2023/04/06 00:44:34;;;;;;;10.02;6.40;;;0.40;99.90;;;;;;5009581;28;20043;-71
2023/04/06 00:47:00;;;;;;;12.15;5.95;;;0.40;99.90;;;;;;5011338;28;20115;-71
2023/04/06 00:49:26;;;;;;;8.02;5.70;;;0.30;99.90;;;;;;5008131;28;20041;-70
2023/04/06 00:51:52;;;;;;;8.50;5.65;;;0.30;99.90;;;;;;5010556;28;20044;-71
2023/04/06 00:54:18;;;;;;;9.93;5.60;;;0.30;99.90;;;;;;5006760;28;20068;-71
2023/04/06 00:56:44;;;;;;;9.73;5.60;;;0.30;99.90;;;;;;5010124;28;20148;-70
2023/04/06 00:59:10;;;;;;;9.20;6.03;;;0.30;99.90;;;;;;5009985;28;20068;-71
2023/04/06 01:01:36;;;;;;;9.85;6.63;;;0.20;99.90;;;;;;5017995;28;20045;-70
2023/04/06 01:04:02;;;;;;;10.25;6.55;;;0.20;99.90;;;;;;4997249;28;20120;-70
2023/04/06 01:06:28;;;;;;;9.57;6.07;;;0.10;99.90;;;;;;4998302;28;20073;-71
2023/04/06 01:08:54;;;;;;;11.20;6.22;;;0.10;99.90;;;;;;5019104;28;20083;-71
2023/04/06 01:11:19;;;;;;;9.52;6.57;;;0.10;99.90;;;;;;5014092;28;20052;-71
2023/04/06 01:13:45;;;;;;;9.52;6.40;;;0.10;99.90;;;;;;4984867;28;20091;-69
2023/04/06 01:16:11;;;;;;;9.35;5.95;;;0.10;99.90;;;;;;4998193;28;20051;-71
2023/04/06 01:18:37;;;;;;;9.60;6.03;;;0.10;99.90;;;;;;5000057;28;20042;-70
2023/04/06 01:21:03;;;;;;;9.55;5.93;;;0.10;99.90;;;;;;4996913;28;20523;-70
2023/04/06 01:23:29;;;;;;;9.15;5.70;;;0.10;99.90;;;;;;5003499;28;20140;-70
2023/04/06 01:25:55;;;;;;;8.75;6.13;;;0.00;99.90;;;;;;4998192;28;20041;-71
2023/04/06 01:28:20;;;;;;;12.35;6.47;;;0.00;99.90;;;;;;4996472;28;20124;-71
2023/04/06 01:30:46;;;;;;;8.07;5.90;;;0.00;99.90;;;;;;4991401;28;20056;-69
2023/04/06 01:33:12;;;;;;;10.05;6.50;;;0.00;99.90;;;;;;5007181;28;20627;-71
2023/04/06 01:35:37;;;;;;;9.80;6.10;;;-0.10;99.90;;;;;;5005121;28;20476;-71
2023/04/06 01:38:03;;;;;;;6.30;5.57;;;-0.10;99.90;;;;;;5009308;28;20038;-70
2023/04/06 01:40:28;;;;;;;10.02;6.07;;;-0.10;99.90;;;;;;5008015;28;20041;-72
2023/04/06 01:42:54;;;;;;;9.15;6.35;;;-0.10;99.90;;;;;;5010247;28;20069;-71
2023/04/06 01:45:19;;;;;;;9.20;5.97;;;-0.10;99.90;;;;;;5006790;28;20033;-70
2023/04/06 01:47:45;;;;;;;8.73;5.85;;;-0.20;99.90;;;;;;5003816;28;20067;-70
2023/04/06 01:50:11;;;;;;;11.73;6.28;;;-0.20;99.90;;;;;;5015767;28;20052;-69
2023/04/06 01:52:37;;;;;;;9.25;5.93;;;-0.20;99.90;;;;;;5008178;28;20114;-71
2023/04/06 01:55:03;;;;;;;9.13;6.28;;;-0.10;99.90;;;;;;5009791;28;20060;-71
2023/04/06 01:57:29;;;;;;;14.20;5.95;;;-0.10;99.90;;;;;;5011109;28;20042;-70
2023/04/06 01:59:54;;;;;;;10.25;6.38;;;-0.10;99.90;;;;;;5006987;28;20386;-71
2023/04/06 02:02:20;;;;;;;10.13;5.88;;;0.00;99.90;;;;;;5011617;28;20416;-71
2023/04/06 02:04:45;;;;;;;9.32;5.45;;;-0.10;99.90;;;;;;5005121;28;20599;-71
2023/04/06 02:07:11;;;;;;;9.43;5.90;;;0.00;99.90;;;;;;5003765;28;20440;-69
2023/04/06 02:09:37;;;;;;;9.00;5.60;;;0.00;99.90;;;;;;5011854;28;20686;-70
2023/04/06 02:12:02;;;;;;;10.80;6.60;;;-0.10;99.90;;;;;;5007673;28;20045;-70
2023/04/06 02:14:28;;;;;;;11.05;6.50;;;-0.10;99.90;;;;;;5004364;28;20045;-70
2023/04/06 02:16:54;;;;;;;13.80;6.43;;;-0.10;99.90;;;;;;5002730;28;20545;-71
2023/04/06 02:19:19;;;;;;;9.98;6.25;;;-0.20;99.90;;;;;;5004292;28;20037;-70
2023/04/06 02:21:45;;;;;;;8.85;6.18;;;-0.20;99.90;;;;;;5004328;28;20523;-71
2023/04/06 02:24:10;;;;;;;10.40;6.43;;;-0.20;99.90;;;;;;5008692;28;20508;-71
2023/04/06 02:26:36;;;;;;;10.85;6.45;;;-0.30;99.90;;;;;;5001123;28;20417;-71
2023/04/06 02:29:02;;;;;;;9.48;6.30;;;-0.30;99.90;;;;;;4996806;28;20581;-71
2023/04/06 02:31:27;;;;;;;10.30;6.07;;;-0.30;99.90;;;;;;5001261;28;20529;-71
2023/04/06 02:33:53;;;;;;;8.00;5.78;;;-0.30;99.90;;;;;;4989483;28;20042;-70
2023/04/06 02:36:19;;;;;;;9.55;6.13;;;-0.30;99.90;;;;;;5002484;28;20136;-70
2023/04/06 02:38:45;;;;;;;9.43;5.63;;;-0.30;99.90;;;;;;5022716;28;20608;-71
2023/04/06 02:41:10;;;;;;;9.68;6.15;;;-0.40;99.90;;;;;;5009565;28;20048;-71
2023/04/06 02:43:36;;;;;;;11.13;7.00;;;-0.40;99.90;;;;;;5009084;28;20029;-70
2023/04/06 02:46:01;;;;;;;10.60;6.10;;;-0.40;99.90;;;;;;5002857;28;20840;-70
2023/04/06 02:48:27;;;;;;;8.75;6.40;;;-0.40;99.90;;;;;;4999941;28;20063;-72
2023/04/06 02:50:52;;;;;;;11.32;6.65;;;-0.40;99.90;;;;;;4999055;28;20033;-71
2023/04/06 02:53:18;;;;;;;9.88;6.80;;;-0.50;99.90;;;;;;4988614;28;20548;-70
2023/04/06 02:55:43;;;;;;;9.38;6.43;;;-0.50;99.90;;;;;;4991330;28;20134;-71
2023/04/06 02:58:09;;;;;;;10.20;6.15;;;-0.60;99.90;;;;;;4977221;28;20054;-71
2023/04/06 03:00:35;;;;;;;9.82;6.07;;;-0.60;99.90;;;;;;4959687;28;20077;-71
2023/04/06 03:03:01;;;;;;;10.40;6.72;;;-0.60;99.90;;;;;;4968914;28;20484;-70
2023/04/06 03:05:26;;;;;;;10.60;6.35;;;-0.60;99.90;;;;;;4963790;28;20042;-70
2023/04/06 03:07:52;;;;;;;11.98;6.80;;;-0.70;99.90;;;;;;4970599;28;20108;-71
2023/04/06 03:10:18;;;;;;;10.63;6.35;;;-0.70;99.90;;;;;;4978645;28;20478;-71
2023/04/06 03:12:43;;;;;;;9.82;7.03;;;-0.70;99.90;;;;;;4995223;28;20083;-70
2023/04/06 03:15:09;;;;;;;11.60;6.57;;;-0.70;99.90;;;;;;4993763;28;20050;-71
2023/04/06 03:17:35;;;;;;;11.20;5.88;;;-0.70;99.90;;;;;;4977421;28;20536;-70
2023/04/06 03:20:00;;;;;;;11.43;6.55;;;-0.70;99.90;;;;;;4976560;28;20038;-71
2023/04/06 03:22:27;;;;;;;14.75;6.60;;;-0.70;99.90;;;;;;4977959;28;20045;-70
2023/04/06 03:24:52;;;;;;;10.07;6.38;;;-0.70;99.90;;;;;;4977915;28;20042;-71
2023/04/06 03:27:18;;;;;;;11.07;6.03;;;-0.70;99.90;;;;;;4979428;28;20044;-71
2023/04/06 03:29:43;;;;;;;13.35;6.68;;;-0.70;99.90;;;;;;4977843;28;20042;-70
2023/04/06 03:32:10;;;;;;;14.75;6.60;;;-0.70;99.90;;;;;;4984867;28;20100;-71
2023/04/06 03:34:35;;;;;;;12.35;7.45;;;-0.60;99.90;;;;;;4985756;28;20124;-72
2023/04/06 03:37:01;;;;;;;16.58;6.80;;;-0.60;99.90;;;;;;4982940;28;20117;-71
2023/04/06 03:39:26;;;;;;;10.27;7.13;;;-0.60;99.90;;;;;;4987167;28;20038;-72
2023/04/06 03:41:52;;;;;;;11.38;7.55;;;-0.60;99.90;;;;;;4982378;28;20096;-70
2023/04/06 03:44:17;;;;;;;13.02;6.78;;;-0.60;99.90;;;;;;4993697;28;20046;-72
2023/04/06 03:46:43;;;;;;;12.82;7.18;;;-0.60;99.90;;;;;;4989847;28;20037;-72
2023/04/06 03:49:08;;;;;;;9.82;7.07;;;-0.70;99.90;;;;;;4988679;28;20105;-71
2023/04/06 03:51:34;;;;;;;10.75;7.20;;;-0.60;99.90;;;;;;4989879;28;20111;-71
2023/04/06 03:53:59;;;;;;;12.15;6.68;;;-0.50;99.90;;;;;;4976553;28;20136;-71
2023/04/06 03:56:26;;;;;;;11.20;7.25;;;-0.50;99.90;;;;;;5004971;28;20065;-71
2023/04/06 03:58:51;;;;;;;11.63;7.10;;;-0.60;99.90;;;;;;4997148;28;20061;-71
2023/04/06 04:01:20;;;;;;;10.60;7.03;;;-0.70;99.90;;;;;;5012663;28;20068;-72
2023/04/06 04:03:46;;;;;;;10.25;7.30;;;-0.60;99.90;;;;;;5011767;28;20052;-71
2023/04/06 04:06:11;;;;;;;13.93;7.72;;;-0.70;99.90;;;;;;5003006;28;20037;-70
2023/04/06 04:08:37;;;;;;;12.07;7.43;;;-0.70;99.90;;;;;;5011026;28;20039;-70
2023/04/06 04:11:02;;;;;;;11.50;7.47;;;-0.80;99.90;;;;;;5009237;28;20041;-71
2023/04/06 04:13:28;;;;;;;12.65;7.70;;;-0.70;99.90;;;;;;5010672;28;20037;-71
2023/04/06 04:15:54;;;;;;;11.75;7.53;;;-0.60;99.90;;;;;;5010835;28;20107;-71
2023/04/06 04:18:19;;;;;;;11.88;7.50;;;-0.60;99.90;;;;;;5011546;28;20047;-70
2023/04/06 04:20:45;;;;;;;10.75;7.30;;;-0.60;99.90;;;;;;5005981;28;20037;-71
2023/04/06 04:23:11;;;;;;;11.30;6.75;;;-0.60;99.90;;;;;;5009619;28;20041;-71
2023/04/06 04:25:36;;;;;;;11.45;6.82;;;-0.60;99.90;;;;;;5010029;28;20120;-72
2023/04/06 04:28:02;;;;;;;11.35;7.25;;;-0.60;99.90;;;;;;5004262;28;20060;-72
2023/04/06 04:30:28;;;;;;;12.80;7.40;;;-0.60;99.90;;;;;;4985712;28;20041;-71
2023/04/06 04:32:54;;;;;;;11.63;7.45;;;-0.60;99.90;;;;;;4996241;28;20056;-71
2023/04/06 04:35:19;;;;;;;11.73;7.30;;;-0.70;99.90;;;;;;5002998;28;20041;-70
2023/04/06 04:37:45;;;;;;;11.70;7.07;;;-0.70;99.90;;;;;;5006391;28;20037;-71
2023/04/06 04:40:11;;;;;;;11.15;7.80;;;-0.70;99.90;;;;;;5009678;28;20065;-72
2023/04/06 04:42:37;;;;;;;12.90;8.00;;;-0.80;99.90;;;;;;4996575;28;20417;-72
2023/04/06 04:45:02;;;;;;;10.68;7.07;;;-0.80;99.90;;;;;;5007050;28;20537;-71
2023/04/06 04:47:28;;;;;;;9.63;6.90;;;-0.80;99.90;;;;;;5002536;28;20092;-72
2023/04/06 04:49:53;;;;;;;11.95;7.65;;;-0.80;99.90;;;;;;4990054;28;20049;-71
2023/04/06 04:52:19;;;;;;;17.17;8.07;;;-0.80;99.90;;;;;;5003733;28;20128;-71
2023/04/06 04:54:46;;;;;;;15.30;7.25;;;-0.80;99.90;;;;;;4994957;28;20096;-71
2023/04/06 04:57:12;;;;;;;12.77;7.53;;;-0.90;99.90;;;;;;4979036;28;20067;-71
2023/04/06 04:59:38;;;;;;;11.32;7.53;;;-0.80;99.90;;;;;;4990828;28;20029;-70
2023/04/06 05:02:03;;;;;;;13.02;7.55;;;-0.70;99.90;;;;;;4994477;28;20037;-71
2023/04/06 05:04:29;;;;;;;13.63;8.35;;;-0.70;99.90;;;;;;4992601;28;20120;-71
2023/04/06 05:07:07;;;;;;;15.75;8.18;;;-0.70;99.90;;;;;;4998382;28;20110;-71
2023/04/06 05:09:33;;;;;;;15.55;7.85;;;-0.60;99.90;;;;;;4996462;28;20047;-70
2023/04/06 05:12:00;;;;;;;13.60;8.65;;;-0.60;99.90;;;;;;4996229;28;20033;-71
2023/04/06 05:14:28;;;;;;;12.55;7.97;;;-0.60;99.90;;;;;;5000359;28;20049;-71
2023/04/06 05:16:54;;;;;;;15.30;8.07;;;-0.60;99.90;;;;;;5005533;28;20060;-71
2023/04/06 05:19:20;;;;;;;15.82;8.35;;;-0.60;99.90;;;;;;5003979;28;20033;-71
2023/04/06 05:21:46;;;;;;;15.43;7.93;;;-0.70;99.90;;;;;;4998545;28;20038;-72
2023/04/06 05:24:11;;;;;;;13.57;7.28;;;-0.70;99.90;;;;;;5008602;28;20033;-71
2023/04/06 05:26:37;;;;;;;11.18;8.13;;;-0.70;99.90;;;;;;5010308;28;20063;-72
2023/04/06 05:29:02;;;;;;;14.48;8.90;;;-0.60;99.90;;;;;;5006060;28;20038;-71
2023/04/06 05:31:29;;;;;;;12.27;8.23;;;-0.50;99.90;;;;;;5003839;28;20042;-71
2023/04/06 05:33:56;;;;;;;13.23;7.70;;;-0.50;99.90;;;;;;4995345;28;20092;-70
2023/04/06 05:36:22;;;;;;;12.65;8.23;;;-0.40;99.90;;;;;;5017310;28;20049;-71
2023/04/06 05:38:47;;;;;;;12.95;8.23;;;-0.40;99.90;;;;;;5024957;28;20041;-71
2023/04/06 05:41:13;;;;;;;15.45;8.93;;;-0.30;99.90;;;;;;4997897;28;20041;-72
2023/04/06 05:43:38;;;;;;;14.82;8.32;;;-0.30;99.90;;;;;;4981277;28;20556;-70
2023/04/06 05:46:04;;;;;;;12.80;8.27;;;-0.30;99.90;;;;;;4994826;28;20723;-72
2023/04/06 05:48:29;;;;;;;13.30;8.45;;;-0.20;99.90;;;;;;4995333;28;20045;-71
2023/04/06 05:50:55;;;;;;;14.68;9.02;;;-0.10;99.90;;;;;;4999850;28;20101;-71
2023/04/06 05:53:21;;;;;;;12.43;8.80;;;0.00;99.90;;;;;;5001845;28;20046;-71
2023/04/06 05:55:47;;;;;;;13.73;8.45;;;0.10;99.90;;;;;;4995864;28;20050;-71
2023/04/06 05:58:12;;;;;;;14.40;9.68;;;0.10;99.90;;;;;;5029413;28;20433;-71
2023/04/06 06:00:38;;;;;;;12.05;8.20;;;0.20;99.90;;;;;;4978292;28;20034;-71
2023/04/06 06:03:04;;;;;;;14.48;9.40;;;0.30;99.90;;;;;;4996433;28;20046;-70
2023/04/06 06:05:29;;;;;;;12.90;8.27;;;0.30;99.90;;;;;;4997574;28;20042;-71
2023/04/06 06:07:55;;;;;;;15.13;8.80;;;0.50;99.90;;;;;;5008357;28;20037;-71
2023/04/06 06:10:21;;;;;;;13.63;9.32;;;0.60;99.90;;;;;;5030127;28;20037;-72
2023/04/06 06:12:46;;;;;;;13.82;8.68;;;0.70;99.90;;;;;;5001750;28;20034;-71
2023/04/06 06:15:12;;;;;;;16.27;9.10;;;0.80;99.90;;;;;;4997534;28;20116;-72
2023/04/06 06:17:38;;;;;;;18.52;9.63;;;0.90;99.90;;;;;;4993896;28;20038;-72
2023/04/06 06:20:08;;;;;;;15.88;8.48;;;1.10;99.90;;;;;;5004525;28;20053;-72
2023/04/06 06:22:34;;;;;;;13.88;8.80;;;1.20;99.90;;;;;;4993465;28;20339;-73
2023/04/06 06:24:59;;;;;;;14.50;8.45;;;1.40;99.90;;;;;;4992765;28;20033;-72
2023/04/06 06:27:25;;;;;;;13.10;8.45;;;1.60;99.90;;;;;;5009809;28;20064;-71
2023/04/06 06:29:51;;;;;;;15.18;8.75;;;1.80;99.90;;;;;;4997908;28;20096;-73
2023/04/06 06:32:17;;;;;;;16.52;9.77;;;1.90;99.90;;;;;;5008987;28;20049;-71
2023/04/06 06:34:43;;;;;;;13.57;8.68;;;2.10;99.90;;;;;;5005787;28;20037;-71
2023/04/06 06:37:08;;;;;;;14.70;9.23;;;2.30;99.90;;;;;;5009561;28;20046;-70
2023/04/06 06:39:34;;;;;;;14.43;9.20;;;2.50;99.90;;;;;;5003213;28;20038;-71
2023/04/06 06:42:02;;;;;;;13.40;9.07;;;2.70;99.90;;;;;;5009115;28;20029;-72
2023/04/06 06:44:28;;;;;;;18.27;9.00;;;2.80;99.90;;;;;;5009273;28;20037;-70
2023/04/06 06:46:54;;;;;;;16.30;9.40;;;3.00;99.90;;;;;;5009435;28;20430;-72
2023/04/06 06:49:20;;;;;;;11.48;8.57;;;3.20;99.90;;;;;;5016739;28;20080;-72
2023/04/06 06:51:46;;;;;;;16.13;9.57;;;3.50;99.90;;;;;;5020852;28;20041;-73
2023/04/06 06:54:12;;;;;;;13.20;9.48;;;3.70;99.90;;;;;;5012250;28;20045;-71
2023/04/06 06:56:38;;;;;;;15.15;8.52;;;3.90;99.90;;;;;;5009878;28;20059;-72
2023/04/06 06:59:05;;;;;;;12.10;8.43;;;4.00;99.90;;;;;;5020328;28;20084;-72
2023/04/06 07:01:33;;;;;;;13.45;8.95;;;4.20;99.90;;;;;;5005867;28;20591;-72
2023/04/06 07:03:58;;;;;;;13.68;9.35;;;4.40;98.40;;;;;;5005145;28;20044;-72
2023/04/06 07:06:24;;;;;;;11.43;8.68;;;4.50;97.60;;;;;;4993318;28;20485;-73
2023/04/06 07:08:50;;;;;;;15.20;9.45;;;4.70;97.80;;;;;;5009949;28;20041;-71
2023/04/06 07:11:16;;;;;;;14.23;9.00;;;4.90;97.60;;;;;;5007054;28;20049;-71
2023/04/06 07:13:42;;;;;;;10.77;8.18;;;5.10;96.60;;;;;;4996631;28;20045;-71
2023/04/06 07:16:08;;;;;;;14.50;10.00;;;5.20;93.50;;;;;;5011901;28;20045;-71
2023/04/06 07:18:33;;;;;;;11.20;9.25;;;5.40;95.30;;;;;;5016502;28;20043;-72
2023/04/06 07:20:59;;;;;;;15.38;10.15;;;5.50;93.40;;;;;;5009707;28;20060;-72
2023/04/06 07:23:25;;;;;;;13.00;9.35;;;5.80;94.20;;;;;;5009489;28;20513;-72
2023/04/06 07:25:52;;;;;;;11.80;8.70;;;5.80;91.50;;;;;;5013699;28;20558;-72
2023/04/06 07:28:17;;;;;;;14.57;9.88;;;5.90;91.10;;;;;;5013490;28;20045;-71
2023/04/06 07:30:43;;;;;;;15.55;9.70;;;6.00;89.50;;;;;;5010944;28;20469;-73
2023/04/06 07:33:09;;;;;;;12.55;10.35;;;6.20;88.70;;;;;;5006971;28;20506;-73
2023/04/06 07:35:36;;;;;;;14.50;9.77;;;6.20;84.70;;;;;;5001387;28;20034;-72
2023/04/06 07:38:02;;;;;;;12.25;9.45;;;6.50;86.90;;;;;;5004485;28;20077;-74
2023/04/06 07:40:28;;;;;;;17.23;10.25;;;6.70;85.70;;;;;;5008004;28;20041;-73
2023/04/06 07:42:53;;;;;;;14.45;10.02;;;6.70;84.00;;;;;;5013239;28;20044;-72
2023/04/06 07:45:19;;;;;;;16.45;10.20;;;6.70;84.20;;;;;;5007587;28;20033;-73
2023/04/06 07:47:45;;;;;;;13.75;10.05;;;7.10;85.70;;;;;;5007387;28;20042;-72
2023/04/06 07:50:11;;;;;;;13.90;10.27;;;7.20;84.00;;;;;;5007187;28;20477;-73
2023/04/06 07:52:36;;;;;;;11.70;9.32;;;7.30;83.60;;;;;;5010197;28;20033;-74
2023/04/06 07:55:02;;;;;;;12.85;9.93;;;7.40;80.90;;;;;;5006644;28;20559;-74
2023/04/06 07:57:28;;;;;;;12.63;9.85;;;7.40;78.30;;;;;;5006886;28;20042;-76
2023/04/06 07:59:53;;;;;;;15.15;10.48;;;7.60;77.90;;;;;;5012844;28;20049;-70
2023/04/06 08:02:19;;;;;;;11.75;9.13;;;7.70;74.80;;;;;;5029954;28;20040;-72
2023/04/06 08:04:45;;;;;;;12.63;9.90;;;8.00;75.10;;;;;;5011074;28;20128;-72
2023/04/06 08:07:10;;;;;;;18.27;10.50;;;8.00;74.10;;;;;;5015476;28;20401;-72
2023/04/06 08:09:36;;;;;;;16.58;10.48;;;7.90;73.30;;;;;;5032534;28;20029;-70
2023/04/06 08:12:01;;;;;;;13.27;9.88;;;8.00;75.10;;;;;;5032271;28;20549;-68
2023/04/06 08:14:27;;;;;;;14.77;9.65;;;8.10;71.10;;;;;;4993830;28;20045;-69
2023/04/06 08:16:52;;;;;;;13.52;9.38;;;8.10;71.10;;;;;;5003664;28;20041;-72
2023/04/06 08:19:18;;;;;;;15.77;10.15;;;8.10;69.80;;;;;;4997901;28;20607;-71
2023/04/06 08:21:45;;;;;;;14.00;9.95;;;8.10;67.50;;;;;;5013672;28;20436;-70
2023/04/06 08:24:11;;;;;;;15.98;9.82;;;8.20;67.30;;;;;;5013241;28;20133;-71
2023/04/06 08:26:37;;;;;;;14.52;9.70;;;8.20;65.00;;;;;;5015905;28;20098;-73
2023/04/06 08:29:03;;;;;;;12.38;9.00;;;8.30;65.00;;;;;;4997510;28;20528;-70
2023/04/06 08:31:30;;;;;;;13.93;9.43;;;8.30;64.30;;;;;;5014600;28;20045;-71
2023/04/06 08:33:56;;;;;;;15.65;9.85;;;8.50;64.20;;;;;;5012353;28;20044;-71
2023/04/06 08:36:22;;;;;;;16.98;9.20;;;8.70;64.00;;;;;;5011047;28;20041;-71
2023/04/06 08:38:49;;;;;;;15.38;10.02;;;9.00;62.50;;;;;;5009517;28;20131;-73
2023/04/06 08:41:16;;;;;;;17.92;10.55;;;9.50;62.30;;;;;;4991079;28;20038;-70
2023/04/06 08:43:59;;;;;;;16.45;9.55;;;10.10;61.30;;;;;;5014468;28;20037;-72
2023/04/06 08:46:31;;;;;;;14.43;9.85;;;10.80;58.10;;;;;;5012966;28;20056;-76
2023/04/06 08:48:59;;;;;;;17.00;9.45;;;11.20;57.70;;;;;;5012468;28;20417;-72
2023/04/06 08:51:26;;;;;;;14.60;9.80;;;11.50;55.30;;;;;;5013585;28;20037;-73
2023/04/06 08:53:56;;;;;;;14.65;9.70;;;11.80;55.30;;;;;;5008408;28;20073;-72
2023/04/06 08:56:26;;;;;;;13.48;9.75;;;12.00;52.80;;;;;;5014629;28;20104;-73
2023/04/06 08:58:52;;;;;;;14.85;9.45;;;12.10;53.80;;;;;;5012627;28;20524;-71
2023/04/06 09:01:22;;;;;;;13.98;9.70;;;12.10;53.80;;;;;;5005766;28;20086;-71
2023/04/06 09:03:50;;;;;;;15.52;9.85;;;11.90;53.70;;;;;;5012681;28;20405;-71
2023/04/06 09:06:16;;;;;;;13.32;10.00;;;11.50;53.60;;;;;;5011361;28;20503;-71
2023/04/06 09:08:42;;;;;;;15.77;10.63;;;11.60;55.20;;;;;;5012532;28;20084;-71
2023/04/06 09:11:08;;;;;;;14.05;9.23;;;11.20;53.90;;;;;;5013519;28;20056;-72
2023/04/06 09:13:53;;;;;;;14.13;9.48;;;11.20;53.60;;;;;;4997109;28;20033;-73
2023/04/06 09:16:20;;;;;;;16.80;10.40;;;11.00;50.30;;;;;;5014284;28;20084;-74
2023/04/06 09:18:46;;;;;;;14.23;9.02;;;11.30;52.90;;;;;;5013902;28;20454;-68
2023/04/06 09:21:12;;;;;;;15.10;9.38;;;11.50;48.90;;;;;;5011109;28;20510;-71
2023/04/06 09:23:38;;;;;;;15.45;10.18;;;11.40;49.70;;;;;;5014059;28;20038;-72
2023/04/06 09:26:10;;;;;;;13.98;10.27;;;11.40;50.00;;;;;;5014395;28;20683;-76
2023/04/06 09:28:46;;;;;;;12.90;9.63;;;11.50;49.10;;;;;;5032058;28;20120;-73
2023/04/06 09:31:13;;;;;;;12.52;8.93;;;11.40;48.60;;;;;;5011482;28;20465;-68
2023/04/06 09:33:41;;;;;;;14.15;10.10;;;11.40;49.40;;;;;;5011485;28;20115;-72
2023/04/06 09:36:09;;;;;;;15.45;9.63;;;11.40;49.50;;;;;;5011158;28;20132;-72
2023/04/06 09:38:56;;;;;;;12.25;9.27;;;11.50;49.80;;;;;;5011958;28;20069;-72
2023/04/06 09:41:30;;;;;;;17.15;10.75;;;11.80;50.80;;;;;;5009900;28;20049;-74
2023/04/06 09:44:06;;;;;;;14.80;10.75;;;11.80;49.20;;;;;;5011294;28;20050;-73
2023/04/06 09:46:34;;;;;;;16.88;10.73;;;11.80;48.60;;;;;;5010648;28;20033;-72
2023/04/06 09:49:02;;;;;;;18.38;11.45;;;11.70;48.10;;;;;;5009323;28;20047;-72
2023/04/06 09:51:44;;;;;;;16.70;11.43;;;11.60;46.80;;;;;;5009122;28;20430;-71
2023/04/06 09:54:15;;;;;;;17.63;10.73;;;11.70;47.50;;;;;;5001121;28;20072;-72
2023/04/06 09:56:45;;;;;;;14.30;10.32;;;11.80;47.20;;;;;;5012908;28;20563;-74
2023/04/06 09:59:25;;;;;;;13.25;9.82;;;11.80;47.10;;;;;;4992585;28;20092;-70
2023/04/06 10:01:52;;;;;;;14.32;10.90;;;11.90;46.90;;;;;;4996473;28;20037;-72
2023/04/06 10:04:31;;;;;;;16.45;11.05;;;12.00;48.00;;;;;;5006302;28;20144;-73
2023/04/06 10:06:57;;;;;;;17.70;11.27;;;12.10;47.90;;;;;;4994228;28;20083;-72
2023/04/06 10:09:27;;;;;;;20.58;11.20;;;12.00;46.20;;;;;;5012741;28;20041;-68
2023/04/06 10:11:53;;;;;;;17.23;11.00;;;12.20;46.20;;;;;;5007558;28;20053;-69
2023/04/06 10:14:19;;;;;;;19.23;12.02;;;12.10;44.70;;;;;;5003896;28;20497;-71
2023/04/06 10:16:48;;;;;;;20.52;11.32;;;12.20;45.40;;;;;;4998949;28;20054;-71
2023/04/06 10:19:21;;;;;;;19.13;11.80;;;12.20;44.60;;;;;;5001640;28;20894;-73
2023/04/06 10:21:50;;;;;;;18.50;11.70;;;12.30;44.50;;;;;;5003458;28;20049;-71
2023/04/06 10:24:17;;;;;;;18.73;12.15;;;12.40;44.00;;;;;;5009118;28;20044;-72
2023/04/06 10:26:42;;;;;;;18.10;12.02;;;12.50;44.30;;;;;;5007230;28;20179;-68
2023/04/06 10:29:08;;;;;;;21.77;13.32;;;12.50;42.70;;;;;;5008592;28;20125;-75
2023/04/06 10:31:41;;;;;;;21.52;12.88;;;12.50;42.70;;;;;;5009326;28;20041;-73
2023/04/06 10:34:07;;;;;;;22.45;13.07;;;12.60;42.00;;;;;;5010659;28;20128;-74
2023/04/06 10:36:34;;;;;;;24.90;14.57;;;12.80;42.90;;;;;;5004888;28;20120;-76
2023/04/06 10:39:04;;;;;;;25.73;15.13;;;12.80;41.90;;;;;;5011152;28;20041;-73
2023/04/06 10:41:41;;;;;;;23.20;14.98;;;12.80;40.60;;;;;;4993758;28;20124;-72
2023/04/06 10:44:07;;;;;;;22.52;15.13;;;12.90;39.60;;;;;;4996447;28;20042;-71
2023/04/06 10:46:34;;;;;;;26.75;14.75;;;12.80;40.80;;;;;;5010009;28;20041;-72
2023/04/06 10:49:12;;;;;;;24.70;14.85;;;12.80;39.90;;;;;;5011495;28;20048;-72
2023/04/06 10:51:38;;;;;;;24.05;14.48;;;12.70;40.80;;;;;;4993181;28;20124;-72
2023/04/06 10:54:06;;;;;;;23.23;15.30;;;12.80;41.70;;;;;;5032047;28;20430;-74
2023/04/06 10:56:36;;;;;;;24.17;14.85;;;13.00;41.40;;;;;;5013255;28;20045;-72
2023/04/06 10:59:01;;;;;;;24.80;14.95;;;13.10;40.30;;;;;;5032075;28;20037;-68
2023/04/06 11:01:27;;;;;;;21.40;15.70;;;13.40;41.00;;;;;;5014189;28;20095;-73
2023/04/06 11:03:55;;;;;;;22.52;15.40;;;13.30;40.30;;;;;;5011425;28;20481;-72
2023/04/06 11:06:26;;;;;;;23.73;15.52;;;13.30;40.40;;;;;;4997745;28;20059;-76
2023/04/06 11:08:53;;;;;;;24.20;15.63;;;13.50;39.30;;;;;;4992430;28;20120;-72
2023/04/06 11:11:21;;;;;;;25.30;15.05;;;13.30;39.50;;;;;;5012865;28;20053;-69
2023/04/06 11:13:58;;;;;;;26.10;16.08;;;13.20;40.10;;;;;;5005431;28;20045;-69
2023/04/06 11:16:29;;;;;;;25.55;15.98;;;13.20;36.40;;;;;;5010261;28;20069;-70
2023/04/06 11:19:03;;;;;;;25.55;16.02;;;13.00;38.10;;;;;;4992047;28;20045;-71
2023/04/06 11:21:33;;;;;;;28.50;16.15;;;13.10;39.20;;;;;;5030996;28;20455;-69
2023/04/06 11:24:19;;;;;;;24.75;16.25;;;13.10;39.80;;;;;;5011119;28;20499;-69
2023/04/06 11:26:48;;;;;;;33.00;18.40;;;13.00;38.60;;;;;;5011799;28;20139;-68
2023/04/06 11:29:16;;;;;;;26.00;17.10;;;13.30;37.50;;;;;;5016000;28;20075;-72
2023/04/06 11:31:46;;;;;;;26.92;17.00;;;13.10;38.90;;;;;;5014817;28;20049;-73
2023/04/06 11:34:13;;;;;;;;;;;13.50;38.50;;;;;;5028491;28;20075;-73
2023/04/06 11:36:43;;;;;;;31.50;17.30;;;13.50;38.30;;;;;;4999799;28;19917;-69
2023/04/06 11:39:10;;;;;;;27.92;16.95;;;13.70;37.50;;;;;;5014631;28;20342;-72
2023/04/06 11:41:35;;;;;;;28.85;18.83;;;13.60;38.50;;;;;;5017469;28;20045;-71
2023/04/06 11:44:04;;;;;;;30.17;18.50;;;13.70;38.60;;;;;;5002224;28;20056;-74
2023/04/06 11:46:30;;;;;;;30.58;18.30;;;13.60;38.20;;;;;;5012762;28;20037;-70
2023/04/06 11:49:00;;;;;;;31.85;18.13;;;13.60;38.20;;;;;;5013811;28;20088;-71
2023/04/06 11:51:26;;;;;;;;;;;13.50;38.80;;;;;;5013151;28;20132;-69
2023/04/06 11:53:52;;;;;;;29.00;18.08;;;13.40;36.20;;;;;;5007543;28;20479;-71
2023/04/06 11:56:29;;;;;;;32.83;19.15;;;13.60;38.50;;;;;;4998596;28;20067;-68
2023/04/06 11:58:56;;;;;;;32.50;18.90;;;13.90;36.90;;;;;;5011761;28;20419;-69
2023/04/06 12:01:22;;;;;;;33.22;18.50;;;13.70;33.60;;;;;;5015261;28;20396;-70
2023/04/06 12:03:48;;;;;;;33.50;18.13;;;13.70;36.70;;;;;;5010619;28;20068;-74
2023/04/06 12:06:14;;;;;;;31.23;18.33;;;13.70;36.90;;;;;;5010216;28;20473;-68
2023/04/06 12:08:40;;;;;;;31.92;18.38;;;13.50;34.40;;;;;;4978169;28;20464;-69
2023/04/06 12:11:06;;;;;;;34.03;18.83;;;13.50;37.20;;;;;;4974242;28;20046;-70
2023/04/06 12:13:32;;;;;;;29.73;19.42;;;13.60;38.10;;;;;;4985702;28;20047;-70
2023/04/06 12:15:57;;;;;;;30.45;18.27;;;13.80;38.30;;;;;;5004749;28;20535;-72
2023/04/06 12:18:23;;;;;;;32.60;19.52;;;14.00;38.30;;;;;;5013267;28;20041;-71
2023/04/06 12:20:49;;;;;;;29.88;19.00;;;13.80;37.70;;;;;;5011985;28;20048;-69
2023/04/06 12:23:15;;;;;;;31.08;17.77;;;13.80;37.20;;;;;;5015197;28;20033;-70
2023/04/06 12:25:42;;;;;;;33.25;19.10;;;13.70;37.00;;;;;;5013441;28;20602;-72
2023/04/06 12:28:07;;;;;;;33.15;18.90;;;13.70;37.10;;;;;;5012851;28;20042;-71
2023/04/06 12:30:34;;;;;;;32.17;18.02;;;13.70;36.90;;;;;;5012624;28;20496;-74
2023/04/06 12:33:01;;;;;;;30.02;18.92;;;13.70;37.60;;;;;;5010522;28;20049;-69
2023/04/06 12:35:26;;;;;;;30.70;19.33;;;13.40;36.90;;;;;;4994590;28;20056;-72
2023/04/06 12:37:53;;;;;;;30.05;18.58;;;13.70;38.70;;;;;;5015105;28;20041;-70